sensor_id;sensor_type;location;lat;lon;timestamp;temperature;humidity
19755;DHT22;10036;47.812;9.274;2023-08-30T00:01:36;13.50;99.90
19755;DHT22;10036;47.812;9.274;2023-08-30T00:04:03;13.50;99.90
19755;DHT22;10036;47.812;9.274;2023-08-30T00:06:30;13.40;99.90
19755;DHT22;10036;47.812;9.274;2023-08-30T00:08:57;13.40;99.90
19755;DHT22;10036;47.812;9.274;2023-08-30T00:11:25;13.40;99.90
19755;DHT22;10036;47.812;9.274;2023-08-30T00:13:53;13.50;99.90
19755;DHT22;10036;47.812;9.274;2023-08-30T00:16:20;13.50;99.90
19755;DHT22;10036;47.812;9.274;2023-08-30T00:18:46;13.50;99.90
19755;DHT22;10036;47.812;9.274;2023-08-30T00:21:13;13.50;99.90
19755;DHT22;10036;47.812;9.274;2023-08-30T00:23:42;13.50;99.90
19755;DHT22;10036;47.812;9.274;2023-08-30T00:26:08;13.50;99.90
19755;DHT22;10036;47.812;9.274;2023-08-30T00:28:37;13.50;99.90
19755;DHT22;10036;47.812;9.274;2023-08-30T00:31:05;13.50;99.90
19755;DHT22;10036;47.812;9.274;2023-08-30T00:33:32;13.50;99.90
19755;DHT22;10036;47.812;9.274;2023-08-30T00:35:59;13.50;99.90
19755;DHT22;10036;47.812;9.274;2023-08-30T00:38:27;13.50;99.90
19755;DHT22;10036;47.812;9.274;2023-08-30T00:40:54;13.40;99.90
19755;DHT22;10036;47.812;9.274;2023-08-30T00:43:21;13.40;99.90
19755;DHT22;10036;47.812;9.274;2023-08-30T00:45:49;13.40;99.90
19755;DHT22;10036;47.812;9.274;2023-08-30T00:48:18;13.40;99.90
19755;DHT22;10036;47.812;9.274;2023-08-30T00:50:45;13.40;99.90
19755;DHT22;10036;47.812;9.274;2023-08-30T00:53:12;13.50;99.90
19755;DHT22;10036;47.812;9.274;2023-08-30T00:55:41;13.50;99.90
19755;DHT22;10036;47.812;9.274;2023-08-30T00:58:09;13.50;99.90
19755;DHT22;10036;47.812;9.274;2023-08-30T01:00:37;13.50;99.90
19755;DHT22;10036;47.812;9.274;2023-08-30T01:03:06;13.40;99.90
19755;DHT22;10036;47.812;9.274;2023-08-30T01:05:34;13.50;99.90
19755;DHT22;10036;47.812;9.274;2023-08-30T01:08:01;13.40;99.90
19755;DHT22;10036;47.812;9.274;2023-08-30T01:10:36;13.40;99.90
19755;DHT22;10036;47.812;9.274;2023-08-30T01:13:09;13.40;99.90
19755;DHT22;10036;47.812;9.274;2023-08-30T01:15:38;13.40;99.90
19755;DHT22;10036;47.812;9.274;2023-08-30T01:18:07;13.40;99.90
19755;DHT22;10036;47.812;9.274;2023-08-30T01:20:38;13.50;99.90
19755;DHT22;10036;47.812;9.274;2023-08-30T01:23:07;13.50;99.90
19755;DHT22;10036;47.812;9.274;2023-08-30T01:25:45;13.50;99.90
19755;DHT22;10036;47.812;9.274;2023-08-30T01:28:17;13.50;99.90
19755;DHT22;10036;47.812;9.274;2023-08-30T01:30:45;13.50;99.90
19755;DHT22;10036;47.812;9.274;2023-08-30T01:33:13;13.50;99.90
19755;DHT22;10036;47.812;9.274;2023-08-30T01:35:41;13.50;99.90
19755;DHT22;10036;47.812;9.274;2023-08-30T01:38:08;13.40;99.90
19755;DHT22;10036;47.812;9.274;2023-08-30T01:40:38;13.50;99.90
19755;DHT22;10036;47.812;9.274;2023-08-30T01:43:07;13.50;99.90
19755;DHT22;10036;47.812;9.274;2023-08-30T01:45:38;13.50;99.90
19755;DHT22;10036;47.812;9.274;2023-08-30T01:48:08;13.40;99.90
19755;DHT22;10036;47.812;9.274;2023-08-30T01:50:36;13.40;99.90
19755;DHT22;10036;47.812;9.274;2023-08-30T01:53:04;13.40;99.90
19755;DHT22;10036;47.812;9.274;2023-08-30T01:55:32;13.50;99.90
19755;DHT22;10036;47.812;9.274;2023-08-30T01:57:59;13.50;99.90
19755;DHT22;10036;47.812;9.274;2023-08-30T02:00:26;13.50;99.90
19755;DHT22;10036;47.812;9.274;2023-08-30T02:02:54;13.50;99.90
19755;DHT22;10036;47.812;9.274;2023-08-30T02:05:21;13.50;99.90
19755;DHT22;10036;47.812;9.274;2023-08-30T02:07:54;13.50;99.90
19755;DHT22;10036;47.812;9.274;2023-08-30T02:10:24;13.50;99.90
19755;DHT22;10036;47.812;9.274;2023-08-30T02:12:54;13.50;99.90
19755;DHT22;10036;47.812;9.274;2023-08-30T02:15:24;13.50;99.90
19755;DHT22;10036;47.812;9.274;2023-08-30T02:17:53;13.40;99.90
19755;DHT22;10036;47.812;9.274;2023-08-30T02:20:22;13.50;99.90
19755;DHT22;10036;47.812;9.274;2023-08-30T02:22:49;13.50;99.90
19755;DHT22;10036;47.812;9.274;2023-08-30T02:25:16;13.50;99.90
19755;DHT22;10036;47.812;9.274;2023-08-30T02:27:43;13.50;99.90
19755;DHT22;10036;47.812;9.274;2023-08-30T02:30:10;13.50;99.90
19755;DHT22;10036;47.812;9.274;2023-08-30T02:32:37;13.50;99.90
19755;DHT22;10036;47.812;9.274;2023-08-30T02:35:06;13.40;99.90
19755;DHT22;10036;47.812;9.274;2023-08-30T02:37:33;13.40;99.90
19755;DHT22;10036;47.812;9.274;2023-08-30T02:40:00;13.40;99.90
19755;DHT22;10036;47.812;9.274;2023-08-30T02:42:28;13.40;99.90
19755;DHT22;10036;47.812;9.274;2023-08-30T02:44:55;13.40;99.90
19755;DHT22;10036;47.812;9.274;2023-08-30T02:47:22;13.40;99.90
19755;DHT22;10036;47.812;9.274;2023-08-30T02:49:49;13.40;99.90
19755;DHT22;10036;47.812;9.274;2023-08-30T02:52:17;13.50;99.90
19755;DHT22;10036;47.812;9.274;2023-08-30T02:54:44;13.50;99.90
19755;DHT22;10036;47.812;9.274;2023-08-30T02:57:11;13.50;99.90
19755;DHT22;10036;47.812;9.274;2023-08-30T02:59:38;13.30;99.90
19755;DHT22;10036;47.812;9.274;2023-08-30T03:02:05;13.40;99.90
19755;DHT22;10036;47.812;9.274;2023-08-30T03:04:32;13.40;99.90
19755;DHT22;10036;47.812;9.274;2023-08-30T03:06:59;13.50;99.90
19755;DHT22;10036;47.812;9.274;2023-08-30T03:09:28;13.50;99.90
19755;DHT22;10036;47.812;9.274;2023-08-30T03:11:55;13.50;99.90
19755;DHT22;10036;47.812;9.274;2023-08-30T03:14:22;13.40;99.90
19755;DHT22;10036;47.812;9.274;2023-08-30T03:16:48;13.30;99.90
19755;DHT22;10036;47.812;9.274;2023-08-30T03:19:15;13.30;99.90
19755;DHT22;10036;47.812;9.274;2023-08-30T03:21:43;13.30;99.90
19755;DHT22;10036;47.812;9.274;2023-08-30T03:24:10;13.30;99.90
19755;DHT22;10036;47.812;9.274;2023-08-30T03:26:38;13.30;99.90
19755;DHT22;10036;47.812;9.274;2023-08-30T03:29:06;13.30;99.90
19755;DHT22;10036;47.812;9.274;2023-08-30T03:31:33;13.30;99.90
19755;DHT22;10036;47.812;9.274;2023-08-30T03:34:00;13.30;99.90
19755;DHT22;10036;47.812;9.274;2023-08-30T03:36:27;13.30;99.90
19755;DHT22;10036;47.812;9.274;2023-08-30T03:38:54;13.30;99.90
19755;DHT22;10036;47.812;9.274;2023-08-30T03:41:21;13.30;99.90
19755;DHT22;10036;47.812;9.274;2023-08-30T03:43:49;13.30;99.90
19755;DHT22;10036;47.812;9.274;2023-08-30T03:46:16;13.40;99.90
19755;DHT22;10036;47.812;9.274;2023-08-30T03:48:43;13.50;99.90
19755;DHT22;10036;47.812;9.274;2023-08-30T03:51:10;13.50;99.90
19755;DHT22;10036;47.812;9.274;2023-08-30T03:53:36;13.50;99.90
19755;DHT22;10036;47.812;9.274;2023-08-30T03:56:03;13.50;99.90
19755;DHT22;10036;47.812;9.274;2023-08-30T03:58:30;13.50;99.90
19755;DHT22;10036;47.812;9.274;2023-08-30T04:00:58;13.40;99.90
19755;DHT22;10036;47.812;9.274;2023-08-30T04:03:25;13.40;99.90
19755;DHT22;10036;47.812;9.274;2023-08-30T04:05:55;13.30;99.90
19755;DHT22;10036;47.812;9.274;2023-08-30T04:08:22;13.30;99.90
19755;DHT22;10036;47.812;9.274;2023-08-30T04:10:52;13.30;99.90
19755;DHT22;10036;47.812;9.274;2023-08-30T04:13:19;13.30;99.90
19755;DHT22;10036;47.812;9.274;2023-08-30T04:15:47;13.30;99.90
19755;DHT22;10036;47.812;9.274;2023-08-30T04:18:15;13.30;99.90
19755;DHT22;10036;47.812;9.274;2023-08-30T04:20:44;13.30;99.90
19755;DHT22;10036;47.812;9.274;2023-08-30T04:23:11;13.30;99.90
19755;DHT22;10036;47.812;9.274;2023-08-30T04:25:38;13.30;99.90
19755;DHT22;10036;47.812;9.274;2023-08-30T04:28:05;13.30;99.90
19755;DHT22;10036;47.812;9.274;2023-08-30T04:30:32;13.40;99.90
19755;DHT22;10036;47.812;9.274;2023-08-30T04:33:00;13.40;99.90
19755;DHT22;10036;47.812;9.274;2023-08-30T04:35:30;13.50;99.90
19755;DHT22;10036;47.812;9.274;2023-08-30T04:37:58;13.50;99.90
19755;DHT22;10036;47.812;9.274;2023-08-30T04:40:25;13.50;99.90
19755;DHT22;10036;47.812;9.274;2023-08-30T04:42:52;13.50;99.90
19755;DHT22;10036;47.812;9.274;2023-08-30T04:45:19;13.50;99.90
19755;DHT22;10036;47.812;9.274;2023-08-30T04:47:46;13.50;99.90
19755;DHT22;10036;47.812;9.274;2023-08-30T04:50:13;13.40;99.90
19755;DHT22;10036;47.812;9.274;2023-08-30T04:52:41;13.40;99.90
19755;DHT22;10036;47.812;9.274;2023-08-30T04:55:09;13.50;99.90
19755;DHT22;10036;47.812;9.274;2023-08-30T04:57:36;13.40;99.90
19755;DHT22;10036;47.812;9.274;2023-08-30T05:00:04;13.40;99.90
19755;DHT22;10036;47.812;9.274;2023-08-30T05:02:31;13.40;99.90
19755;DHT22;10036;47.812;9.274;2023-08-30T05:04:58;13.40;99.90
19755;DHT22;10036;47.812;9.274;2023-08-30T05:07:25;13.30;99.90
19755;DHT22;10036;47.812;9.274;2023-08-30T05:09:53;13.30;99.90
19755;DHT22;10036;47.812;9.274;2023-08-30T05:12:20;13.40;99.90
19755;DHT22;10036;47.812;9.274;2023-08-30T05:14:47;13.40;99.90
19755;DHT22;10036;47.812;9.274;2023-08-30T05:17:14;13.50;99.90
19755;DHT22;10036;47.812;9.274;2023-08-30T05:19:41;13.50;99.90
19755;DHT22;10036;47.812;9.274;2023-08-30T05:22:08;13.50;99.90
19755;DHT22;10036;47.812;9.274;2023-08-30T05:24:35;13.50;99.90
19755;DHT22;10036;47.812;9.274;2023-08-30T05:27:03;13.50;99.90
19755;DHT22;10036;47.812;9.274;2023-08-30T05:29:30;13.50;99.90
19755;DHT22;10036;47.812;9.274;2023-08-30T05:31:57;13.60;99.90
19755;DHT22;10036;47.812;9.274;2023-08-30T05:34:24;13.50;99.90
19755;DHT22;10036;47.812;9.274;2023-08-30T05:36:52;13.50;99.90
19755;DHT22;10036;47.812;9.274;2023-08-30T05:39:19;13.50;99.90
19755;DHT22;10036;47.812;9.274;2023-08-30T05:41:46;13.50;99.90
19755;DHT22;10036;47.812;9.274;2023-08-30T05:44:14;13.50;99.90
19755;DHT22;10036;47.812;9.274;2023-08-30T05:46:41;13.50;99.90
19755;DHT22;10036;47.812;9.274;2023-08-30T05:49:08;13.50;99.90
19755;DHT22;10036;47.812;9.274;2023-08-30T05:51:35;13.50;99.90
19755;DHT22;10036;47.812;9.274;2023-08-30T05:54:02;13.60;99.90
19755;DHT22;10036;47.812;9.274;2023-08-30T05:56:29;13.50;99.90
19755;DHT22;10036;47.812;9.274;2023-08-30T05:58:56;13.50;99.90
19755;DHT22;10036;47.812;9.274;2023-08-30T06:01:24;13.50;99.90
19755;DHT22;10036;47.812;9.274;2023-08-30T06:03:51;13.60;99.90
19755;DHT22;10036;47.812;9.274;2023-08-30T06:06:18;13.60;99.90
19755;DHT22;10036;47.812;9.274;2023-08-30T06:08:45;13.60;99.90
19755;DHT22;10036;47.812;9.274;2023-08-30T06:11:11;13.60;99.90
19755;DHT22;10036;47.812;9.274;2023-08-30T06:13:39;13.60;99.90
19755;DHT22;10036;47.812;9.274;2023-08-30T06:16:06;13.50;99.90
19755;DHT22;10036;47.812;9.274;2023-08-30T06:18:35;13.50;99.90
19755;DHT22;10036;47.812;9.274;2023-08-30T06:21:03;13.60;99.90
19755;DHT22;10036;47.812;9.274;2023-08-30T06:23:30;13.70;99.90
19755;DHT22;10036;47.812;9.274;2023-08-30T06:25:57;13.70;99.90
19755;DHT22;10036;47.812;9.274;2023-08-30T06:28:24;13.80;99.90
19755;DHT22;10036;47.812;9.274;2023-08-30T06:30:51;13.70;99.90
19755;DHT22;10036;47.812;9.274;2023-08-30T06:33:18;13.70;99.90
19755;DHT22;10036;47.812;9.274;2023-08-30T06:35:48;13.60;99.90
19755;DHT22;10036;47.812;9.274;2023-08-30T06:38:16;13.60;99.90
19755;DHT22;10036;47.812;9.274;2023-08-30T06:40:44;13.60;99.90
19755;DHT22;10036;47.812;9.274;2023-08-30T06:43:11;13.50;99.90
19755;DHT22;10036;47.812;9.274;2023-08-30T06:45:38;13.50;99.90
19755;DHT22;10036;47.812;9.274;2023-08-30T06:48:06;13.60;99.90
19755;DHT22;10036;47.812;9.274;2023-08-30T06:50:33;13.70;99.90
19755;DHT22;10036;47.812;9.274;2023-08-30T06:53:02;13.60;99.90
19755;DHT22;10036;47.812;9.274;2023-08-30T06:55:29;13.60;99.90
19755;DHT22;10036;47.812;9.274;2023-08-30T06:57:57;13.50;99.90
19755;DHT22;10036;47.812;9.274;2023-08-30T07:00:24;13.50;99.90
19755;DHT22;10036;47.812;9.274;2023-08-30T07:02:51;13.60;99.90
19755;DHT22;10036;47.812;9.274;2023-08-30T07:05:18;13.70;99.90
19755;DHT22;10036;47.812;9.274;2023-08-30T07:07:44;13.80;99.90
19755;DHT22;10036;47.812;9.274;2023-08-30T07:10:13;13.80;99.90
19755;DHT22;10036;47.812;9.274;2023-08-30T07:12:39;13.70;99.90
19755;DHT22;10036;47.812;9.274;2023-08-30T07:15:07;13.70;99.90
19755;DHT22;10036;47.812;9.274;2023-08-30T07:17:34;13.80;99.90
19755;DHT22;10036;47.812;9.274;2023-08-30T07:20:01;13.80;99.90
19755;DHT22;10036;47.812;9.274;2023-08-30T07:22:30;13.80;99.90
19755;DHT22;10036;47.812;9.274;2023-08-30T07:24:57;13.80;99.90
19755;DHT22;10036;47.812;9.274;2023-08-30T07:27:25;13.70;99.90
19755;DHT22;10036;47.812;9.274;2023-08-30T07:29:54;13.80;99.90
19755;DHT22;10036;47.812;9.274;2023-08-30T07:32:20;13.80;99.90
19755;DHT22;10036;47.812;9.274;2023-08-30T07:34:47;14.00;99.90
19755;DHT22;10036;47.812;9.274;2023-08-30T07:37:18;14.00;99.90
19755;DHT22;10036;47.812;9.274;2023-08-30T07:39:46;14.20;99.90
19755;DHT22;10036;47.812;9.274;2023-08-30T07:42:13;14.30;99.90
19755;DHT22;10036;47.812;9.274;2023-08-30T07:44:42;14.40;99.90
19755;DHT22;10036;47.812;9.274;2023-08-30T07:47:09;14.40;99.90
19755;DHT22;10036;47.812;9.274;2023-08-30T07:49:35;14.40;99.90
19755;DHT22;10036;47.812;9.274;2023-08-30T07:52:03;14.50;99.90
19755;DHT22;10036;47.812;9.274;2023-08-30T07:54:30;14.60;99.90
19755;DHT22;10036;47.812;9.274;2023-08-30T07:56:57;14.60;99.90
19755;DHT22;10036;47.812;9.274;2023-08-30T07:59:24;14.50;99.90
19755;DHT22;10036;47.812;9.274;2023-08-30T08:01:52;14.50;99.90
19755;DHT22;10036;47.812;9.274;2023-08-30T08:04:19;14.50;99.90
19755;DHT22;10036;47.812;9.274;2023-08-30T08:06:46;14.60;99.90
19755;DHT22;10036;47.812;9.274;2023-08-30T08:09:13;14.60;99.90
19755;DHT22;10036;47.812;9.274;2023-08-30T08:11:41;14.60;99.90
19755;DHT22;10036;47.812;9.274;2023-08-30T08:14:09;14.80;99.90
19755;DHT22;10036;47.812;9.274;2023-08-30T08:16:36;14.80;99.90
19755;DHT22;10036;47.812;9.274;2023-08-30T08:19:05;14.90;99.90
19755;DHT22;10036;47.812;9.274;2023-08-30T08:21:32;14.90;99.90
19755;DHT22;10036;47.812;9.274;2023-08-30T08:23:59;15.00;99.90
19755;DHT22;10036;47.812;9.274;2023-08-30T08:26:26;14.80;99.90
19755;DHT22;10036;47.812;9.274;2023-08-30T08:28:54;14.70;99.90
19755;DHT22;10036;47.812;9.274;2023-08-30T08:31:21;14.80;99.90
19755;DHT22;10036;47.812;9.274;2023-08-30T08:33:51;15.00;99.90
19755;DHT22;10036;47.812;9.274;2023-08-30T08:36:19;15.00;99.90
19755;DHT22;10036;47.812;9.274;2023-08-30T08:38:46;15.10;99.90
19755;DHT22;10036;47.812;9.274;2023-08-30T08:41:14;15.00;99.90
19755;DHT22;10036;47.812;9.274;2023-08-30T08:43:42;14.90;99.90
19755;DHT22;10036;47.812;9.274;2023-08-30T08:46:10;14.80;99.90
19755;DHT22;10036;47.812;9.274;2023-08-30T08:48:41;14.90;99.90
19755;DHT22;10036;47.812;9.274;2023-08-30T08:51:07;15.10;99.90
19755;DHT22;10036;47.812;9.274;2023-08-30T08:53:37;15.10;99.90
19755;DHT22;10036;47.812;9.274;2023-08-30T08:56:04;15.30;99.90
19755;DHT22;10036;47.812;9.274;2023-08-30T08:58:35;15.60;99.90
19755;DHT22;10036;47.812;9.274;2023-08-30T09:01:04;15.60;99.90
19755;DHT22;10036;47.812;9.274;2023-08-30T09:03:33;15.60;99.90
19755;DHT22;10036;47.812;9.274;2023-08-30T09:06:01;15.70;99.90
19755;DHT22;10036;47.812;9.274;2023-08-30T09:08:27;15.90;99.90
19755;DHT22;10036;47.812;9.274;2023-08-30T09:10:56;15.80;99.90
19755;DHT22;10036;47.812;9.274;2023-08-30T09:13:23;15.80;99.90
19755;DHT22;10036;47.812;9.274;2023-08-30T09:15:49;15.80;99.90
19755;DHT22;10036;47.812;9.274;2023-08-30T09:18:17;15.80;99.90
19755;DHT22;10036;47.812;9.274;2023-08-30T09:20:44;15.80;99.90
19755;DHT22;10036;47.812;9.274;2023-08-30T09:23:17;15.70;99.90
19755;DHT22;10036;47.812;9.274;2023-08-30T09:25:46;15.60;99.90
19755;DHT22;10036;47.812;9.274;2023-08-30T09:28:15;15.30;99.90
19755;DHT22;10036;47.812;9.274;2023-08-30T09:30:41;15.50;99.90
19755;DHT22;10036;47.812;9.274;2023-08-30T09:33:08;15.70;99.90
19755;DHT22;10036;47.812;9.274;2023-08-30T09:35:44;15.80;99.90
19755;DHT22;10036;47.812;9.274;2023-08-30T09:38:17;15.80;99.90
19755;DHT22;10036;47.812;9.274;2023-08-30T09:40:44;16.00;99.90
19755;DHT22;10036;47.812;9.274;2023-08-30T09:43:11;15.80;99.90
19755;DHT22;10036;47.812;9.274;2023-08-30T09:45:40;16.00;99.90
19755;DHT22;10036;47.812;9.274;2023-08-30T09:48:07;16.10;99.90
19755;DHT22;10036;47.812;9.274;2023-08-30T09:50:35;16.20;99.90
19755;DHT22;10036;47.812;9.274;2023-08-30T09:53:07;16.20;99.90
19755;DHT22;10036;47.812;9.274;2023-08-30T09:55:35;16.10;99.90
19755;DHT22;10036;47.812;9.274;2023-08-30T09:58:02;16.30;99.90
19755;DHT22;10036;47.812;9.274;2023-08-30T10:00:31;16.30;99.90
19755;DHT22;10036;47.812;9.274;2023-08-30T10:03:00;16.20;99.90
19755;DHT22;10036;47.812;9.274;2023-08-30T10:05:27;16.00;99.90
19755;DHT22;10036;47.812;9.274;2023-08-30T10:07:54;15.90;99.90
19755;DHT22;10036;47.812;9.274;2023-08-30T10:10:22;16.00;99.90
19755;DHT22;10036;47.812;9.274;2023-08-30T10:12:49;16.00;99.90
19755;DHT22;10036;47.812;9.274;2023-08-30T10:15:16;16.00;99.90
19755;DHT22;10036;47.812;9.274;2023-08-30T10:17:46;15.90;99.90
19755;DHT22;10036;47.812;9.274;2023-08-30T10:20:14;15.90;99.90
19755;DHT22;10036;47.812;9.274;2023-08-30T10:22:42;16.10;99.90
19755;DHT22;10036;47.812;9.274;2023-08-30T10:25:11;16.30;99.90
19755;DHT22;10036;47.812;9.274;2023-08-30T10:27:45;16.30;99.90
19755;DHT22;10036;47.812;9.274;2023-08-30T10:30:13;16.30;99.90
19755;DHT22;10036;47.812;9.274;2023-08-30T10:32:42;16.50;99.90
19755;DHT22;10036;47.812;9.274;2023-08-30T10:35:11;16.60;99.90
19755;DHT22;10036;47.812;9.274;2023-08-30T10:37:40;16.70;99.90
19755;DHT22;10036;47.812;9.274;2023-08-30T10:40:08;16.90;99.90
19755;DHT22;10036;47.812;9.274;2023-08-30T10:42:36;16.90;99.90
19755;DHT22;10036;47.812;9.274;2023-08-30T10:45:05;17.00;99.90
19755;DHT22;10036;47.812;9.274;2023-08-30T10:47:35;17.00;99.90
19755;DHT22;10036;47.812;9.274;2023-08-30T10:50:05;16.90;99.90
19755;DHT22;10036;47.812;9.274;2023-08-30T10:52:32;17.00;99.90
19755;DHT22;10036;47.812;9.274;2023-08-30T10:55:07;17.00;99.90
19755;DHT22;10036;47.812;9.274;2023-08-30T10:57:34;16.90;99.90
19755;DHT22;10036;47.812;9.274;2023-08-30T11:00:05;17.10;99.90
19755;DHT22;10036;47.812;9.274;2023-08-30T11:02:34;17.30;99.90
19755;DHT22;10036;47.812;9.274;2023-08-30T11:05:01;17.60;99.90
19755;DHT22;10036;47.812;9.274;2023-08-30T11:07:28;17.50;99.90
19755;DHT22;10036;47.812;9.274;2023-08-30T11:09:56;17.40;99.90
19755;DHT22;10036;47.812;9.274;2023-08-30T11:12:24;17.40;99.90
19755;DHT22;10036;47.812;9.274;2023-08-30T11:14:52;17.50;99.90
19755;DHT22;10036;47.812;9.274;2023-08-30T11:17:19;17.50;99.90
19755;DHT22;10036;47.812;9.274;2023-08-30T11:19:46;17.60;99.90
19755;DHT22;10036;47.812;9.274;2023-08-30T11:22:13;17.70;99.90
19755;DHT22;10036;47.812;9.274;2023-08-30T11:24:42;17.60;99.90
19755;DHT22;10036;47.812;9.274;2023-08-30T11:27:09;17.50;99.90
19755;DHT22;10036;47.812;9.274;2023-08-30T11:29:39;17.70;99.90
19755;DHT22;10036;47.812;9.274;2023-08-30T11:32:07;17.80;99.90
19755;DHT22;10036;47.812;9.274;2023-08-30T11:34:34;17.90;99.90
19755;DHT22;10036;47.812;9.274;2023-08-30T11:37:01;17.70;99.90
19755;DHT22;10036;47.812;9.274;2023-08-30T11:39:28;17.80;99.90
19755;DHT22;10036;47.812;9.274;2023-08-30T11:41:56;18.00;99.90
19755;DHT22;10036;47.812;9.274;2023-08-30T11:44:23;18.00;99.90
19755;DHT22;10036;47.812;9.274;2023-08-30T11:46:58;18.00;99.90
19755;DHT22;10036;47.812;9.274;2023-08-30T11:49:26;17.90;99.90
19755;DHT22;10036;47.812;9.274;2023-08-30T11:51:54;18.00;99.90
19755;DHT22;10036;47.812;9.274;2023-08-30T11:54:22;18.20;99.90
19755;DHT22;10036;47.812;9.274;2023-08-30T11:56:49;18.20;99.90
19755;DHT22;10036;47.812;9.274;2023-08-30T11:59:19;18.10;99.90
19755;DHT22;10036;47.812;9.274;2023-08-30T12:01:47;18.10;99.90
19755;DHT22;10036;47.812;9.274;2023-08-30T12:04:16;18.30;99.90
19755;DHT22;10036;47.812;9.274;2023-08-30T12:06:44;18.50;99.90
19755;DHT22;10036;47.812;9.274;2023-08-30T12:09:17;18.60;99.90
19755;DHT22;10036;47.812;9.274;2023-08-30T12:11:47;18.80;99.90
19755;DHT22;10036;47.812;9.274;2023-08-30T12:14:14;18.80;99.90
19755;DHT22;10036;47.812;9.274;2023-08-30T12:16:42;18.80;99.90
19755;DHT22;10036;47.812;9.274;2023-08-30T12:19:11;18.70;99.90
19755;DHT22;10036;47.812;9.274;2023-08-30T12:21:43;18.60;99.90
19755;DHT22;10036;47.812;9.274;2023-08-30T12:24:10;18.50;99.90
19755;DHT22;10036;47.812;9.274;2023-08-30T12:26:37;18.50;99.90
19755;DHT22;10036;47.812;9.274;2023-08-30T12:29:04;18.40;99.90
19755;DHT22;10036;47.812;9.274;2023-08-30T12:31:32;18.70;99.90
19755;DHT22;10036;47.812;9.274;2023-08-30T12:33:59;18.70;99.90
19755;DHT22;10036;47.812;9.274;2023-08-30T12:36:26;18.60;99.90
19755;DHT22;10036;47.812;9.274;2023-08-30T12:38:54;18.70;99.90
19755;DHT22;10036;47.812;9.274;2023-08-30T12:41:21;18.60;99.90
19755;DHT22;10036;47.812;9.274;2023-08-30T12:43:49;18.80;99.90
19755;DHT22;10036;47.812;9.274;2023-08-30T12:46:16;18.90;99.90
19755;DHT22;10036;47.812;9.274;2023-08-30T12:48:43;19.00;99.90
19755;DHT22;10036;47.812;9.274;2023-08-30T12:51:10;19.10;99.90
19755;DHT22;10036;47.812;9.274;2023-08-30T12:53:39;18.60;99.90
19755;DHT22;10036;47.812;9.274;2023-08-30T12:56:07;18.70;99.90
19755;DHT22;10036;47.812;9.274;2023-08-30T12:58:34;18.90;99.90
19755;DHT22;10036;47.812;9.274;2023-08-30T13:01:01;18.90;99.90
19755;DHT22;10036;47.812;9.274;2023-08-30T13:03:28;19.00;99.90
19755;DHT22;10036;47.812;9.274;2023-08-30T13:05:54;19.30;99.90
19755;DHT22;10036;47.812;9.274;2023-08-30T13:08:21;19.40;99.90
19755;DHT22;10036;47.812;9.274;2023-08-30T13:10:49;19.40;99.90
19755;DHT22;10036;47.812;9.274;2023-08-30T13:13:17;19.10;99.90
19755;DHT22;10036;47.812;9.274;2023-08-30T13:15:44;19.20;99.90
19755;DHT22;10036;47.812;9.274;2023-08-30T13:18:11;19.30;99.90
19755;DHT22;10036;47.812;9.274;2023-08-30T13:20:38;19.10;99.90
19755;DHT22;10036;47.812;9.274;2023-08-30T13:23:05;19.30;99.90
19755;DHT22;10036;47.812;9.274;2023-08-30T13:25:32;19.30;99.90
19755;DHT22;10036;47.812;9.274;2023-08-30T13:27:59;19.40;99.90
19755;DHT22;10036;47.812;9.274;2023-08-30T13:30:27;19.30;99.90
19755;DHT22;10036;47.812;9.274;2023-08-30T13:32:54;19.50;99.90
19755;DHT22;10036;47.812;9.274;2023-08-30T13:35:21;19.50;99.90
19755;DHT22;10036;47.812;9.274;2023-08-30T13:37:48;19.70;99.90
19755;DHT22;10036;47.812;9.274;2023-08-30T13:40:15;19.90;99.90
19755;DHT22;10036;47.812;9.274;2023-08-30T13:42:42;20.00;99.90
19755;DHT22;10036;47.812;9.274;2023-08-30T13:45:09;20.00;99.90
19755;DHT22;10036;47.812;9.274;2023-08-30T13:47:38;20.00;99.90
19755;DHT22;10036;47.812;9.274;2023-08-30T13:50:06;19.80;99.90
19755;DHT22;10036;47.812;9.274;2023-08-30T13:52:33;19.70;99.90
19755;DHT22;10036;47.812;9.274;2023-08-30T13:55:00;19.40;99.90
19755;DHT22;10036;47.812;9.274;2023-08-30T13:57:27;19.20;99.90
19755;DHT22;10036;47.812;9.274;2023-08-30T13:59:53;19.20;99.90
19755;DHT22;10036;47.812;9.274;2023-08-30T14:02:20;19.30;99.90
19755;DHT22;10036;47.812;9.274;2023-08-30T14:04:49;19.20;99.90
19755;DHT22;10036;47.812;9.274;2023-08-30T14:07:16;19.40;99.90
19755;DHT22;10036;47.812;9.274;2023-08-30T14:09:42;19.50;99.90
19755;DHT22;10036;47.812;9.274;2023-08-30T14:12:09;19.40;99.90
19755;DHT22;10036;47.812;9.274;2023-08-30T14:14:36;19.20;99.90
19755;DHT22;10036;47.812;9.274;2023-08-30T14:17:03;19.30;99.90
19755;DHT22;10036;47.812;9.274;2023-08-30T14:19:30;19.30;99.90
19755;DHT22;10036;47.812;9.274;2023-08-30T14:21:58;19.40;99.90
19755;DHT22;10036;47.812;9.274;2023-08-30T14:24:28;19.40;99.90
19755;DHT22;10036;47.812;9.274;2023-08-30T14:26:55;19.40;99.90
19755;DHT22;10036;47.812;9.274;2023-08-30T14:29:21;19.40;99.90
19755;DHT22;10036;47.812;9.274;2023-08-30T14:31:48;19.20;99.90
19755;DHT22;10036;47.812;9.274;2023-08-30T14:34:15;19.20;99.90
19755;DHT22;10036;47.812;9.274;2023-08-30T14:36:42;19.20;99.90
19755;DHT22;10036;47.812;9.274;2023-08-30T14:39:12;19.50;99.90
19755;DHT22;10036;47.812;9.274;2023-08-30T14:41:39;19.60;99.90
19755;DHT22;10036;47.812;9.274;2023-08-30T14:44:07;19.60;99.90
19755;DHT22;10036;47.812;9.274;2023-08-30T14:46:34;19.60;99.90
19755;DHT22;10036;47.812;9.274;2023-08-30T14:49:01;19.80;99.90
19755;DHT22;10036;47.812;9.274;2023-08-30T14:51:28;19.80;99.90
19755;DHT22;10036;47.812;9.274;2023-08-30T14:53:54;19.90;99.90
19755;DHT22;10036;47.812;9.274;2023-08-30T14:56:23;20.00;99.90
19755;DHT22;10036;47.812;9.274;2023-08-30T14:58:49;19.90;99.90
19755;DHT22;10036;47.812;9.274;2023-08-30T15:01:17;19.90;99.90
19755;DHT22;10036;47.812;9.274;2023-08-30T15:03:44;19.80;99.90
19755;DHT22;10036;47.812;9.274;2023-08-30T15:06:11;20.00;99.90
19755;DHT22;10036;47.812;9.274;2023-08-30T15:08:38;20.00;99.90
19755;DHT22;10036;47.812;9.274;2023-08-30T15:11:05;20.10;99.90
19755;DHT22;10036;47.812;9.274;2023-08-30T15:13:35;19.80;99.90
19755;DHT22;10036;47.812;9.274;2023-08-30T15:16:03;19.60;99.90
19755;DHT22;10036;47.812;9.274;2023-08-30T15:18:30;19.50;99.90
19755;DHT22;10036;47.812;9.274;2023-08-30T15:20:57;19.40;99.90
19755;DHT22;10036;47.812;9.274;2023-08-30T15:23:25;19.30;99.90
19755;DHT22;10036;47.812;9.274;2023-08-30T15:25:52;19.40;99.90
19755;DHT22;10036;47.812;9.274;2023-08-30T15:28:19;19.40;99.90
19755;DHT22;10036;47.812;9.274;2023-08-30T15:30:48;19.30;99.90
19755;DHT22;10036;47.812;9.274;2023-08-30T15:33:17;19.40;99.90